sensor_id;sensor_type;location;lat;lon;timestamp;P1;durP1;ratioP1;P2;durP2;ratioP2
17251;SDS011;8742;51.716;8.790;2023-04-03T00:00:47;2.57;;;1.50;;
17251;SDS011;8742;51.716;8.790;2023-04-03T00:03:16;7.43;;;1.90;;
17251;SDS011;8742;51.716;8.790;2023-04-03T00:05:43;5.73;;;1.70;;
17251;SDS011;8742;51.716;8.790;2023-04-03T00:08:11;4.57;;;1.73;;
17251;SDS011;8742;51.716;8.790;2023-04-03T00:10:38;4.07;;;1.97;;
17251;SDS011;8742;51.716;8.790;2023-04-03T00:13:05;3.00;;;1.73;;
17251;SDS011;8742;51.716;8.790;2023-04-03T00:15:33;7.23;;;2.20;;
17251;SDS011;8742;51.716;8.790;2023-04-03T00:18:01;5.03;;;1.40;;
17251;SDS011;8742;51.716;8.790;2023-04-03T00:20:29;8.23;;;2.00;;
17251;SDS011;8742;51.716;8.790;2023-04-03T00:22:56;4.50;;;2.17;;
17251;SDS011;8742;51.716;8.790;2023-04-03T00:25:24;3.50;;;1.83;;
17251;SDS011;8742;51.716;8.790;2023-04-03T00:27:50;3.23;;;1.77;;
17251;SDS011;8742;51.716;8.790;2023-04-03T00:30:18;5.53;;;1.90;;
17251;SDS011;8742;51.716;8.790;2023-04-03T00:32:47;5.40;;;2.20;;
17251;SDS011;8742;51.716;8.790;2023-04-03T00:35:14;5.20;;;2.10;;
17251;SDS011;8742;51.716;8.790;2023-04-03T00:37:43;9.77;;;2.17;;
17251;SDS011;8742;51.716;8.790;2023-04-03T00:40:10;5.80;;;2.07;;
17251;SDS011;8742;51.716;8.790;2023-04-03T00:42:39;3.73;;;2.03;;
17251;SDS011;8742;51.716;8.790;2023-04-03T00:48:05;5.73;;;2.50;;
17251;SDS011;8742;51.716;8.790;2023-04-03T00:50:35;4.77;;;2.60;;
17251;SDS011;8742;51.716;8.790;2023-04-03T00:53:06;3.80;;;1.90;;
17251;SDS011;8742;51.716;8.790;2023-04-03T00:55:36;5.40;;;2.10;;
17251;SDS011;8742;51.716;8.790;2023-04-03T00:58:04;5.07;;;2.10;;
17251;SDS011;8742;51.716;8.790;2023-04-03T01:00:32;8.57;;;2.20;;
17251;SDS011;8742;51.716;8.790;2023-04-03T01:03:00;8.83;;;2.27;;
17251;SDS011;8742;51.716;8.790;2023-04-03T01:05:27;5.43;;;1.97;;
17251;SDS011;8742;51.716;8.790;2023-04-03T01:07:54;8.17;;;2.40;;
17251;SDS011;8742;51.716;8.790;2023-04-03T01:10:22;10.63;;;2.17;;
17251;SDS011;8742;51.716;8.790;2023-04-03T01:12:50;4.97;;;2.07;;
17251;SDS011;8742;51.716;8.790;2023-04-03T01:15:18;7.10;;;2.20;;
17251;SDS011;8742;51.716;8.790;2023-04-03T01:17:48;6.37;;;2.50;;
17251;SDS011;8742;51.716;8.790;2023-04-03T01:23:26;5.47;;;2.17;;
17251;SDS011;8742;51.716;8.790;2023-04-03T01:26:03;7.10;;;2.50;;
17251;SDS011;8742;51.716;8.790;2023-04-03T01:28:31;6.43;;;1.70;;
17251;SDS011;8742;51.716;8.790;2023-04-03T01:31:01;10.60;;;2.30;;
17251;SDS011;8742;51.716;8.790;2023-04-03T01:33:36;8.70;;;2.37;;
17251;SDS011;8742;51.716;8.790;2023-04-03T01:36:04;5.90;;;2.17;;
17251;SDS011;8742;51.716;8.790;2023-04-03T01:38:31;6.93;;;2.50;;
17251;SDS011;8742;51.716;8.790;2023-04-03T01:40:58;9.57;;;2.40;;
17251;SDS011;8742;51.716;8.790;2023-04-03T01:43:25;2.60;;;1.90;;
17251;SDS011;8742;51.716;8.790;2023-04-03T01:45:52;6.40;;;2.27;;
17251;SDS011;8742;51.716;8.790;2023-04-03T01:48:19;3.73;;;1.83;;
17251;SDS011;8742;51.716;8.790;2023-04-03T01:50:48;7.77;;;2.40;;
17251;SDS011;8742;51.716;8.790;2023-04-03T01:53:15;4.53;;;2.17;;
17251;SDS011;8742;51.716;8.790;2023-04-03T01:55:41;6.50;;;2.30;;
17251;SDS011;8742;51.716;8.790;2023-04-03T01:58:08;6.00;;;2.20;;
17251;SDS011;8742;51.716;8.790;2023-04-03T02:00:35;4.07;;;1.90;;
17251;SDS011;8742;51.716;8.790;2023-04-03T02:03:02;6.80;;;2.03;;
17251;SDS011;8742;51.716;8.790;2023-04-03T02:05:29;10.87;;;2.57;;
17251;SDS011;8742;51.716;8.790;2023-04-03T02:07:58;5.27;;;2.30;;
17251;SDS011;8742;51.716;8.790;2023-04-03T02:10:25;9.53;;;2.60;;
17251;SDS011;8742;51.716;8.790;2023-04-03T02:12:51;5.73;;;2.37;;
17251;SDS011;8742;51.716;8.790;2023-04-03T02:15:18;5.20;;;2.10;;
17251;SDS011;8742;51.716;8.790;2023-04-03T02:17:45;8.17;;;2.40;;
17251;SDS011;8742;51.716;8.790;2023-04-03T02:20:12;8.77;;;2.43;;
17251;SDS011;8742;51.716;8.790;2023-04-03T02:22:39;12.03;;;2.37;;
17251;SDS011;8742;51.716;8.790;2023-04-03T02:25:08;9.53;;;2.53;;
17251;SDS011;8742;51.716;8.790;2023-04-03T02:27:35;4.60;;;2.07;;
17251;SDS011;8742;51.716;8.790;2023-04-03T02:30:02;5.70;;;2.47;;
17251;SDS011;8742;51.716;8.790;2023-04-03T02:32:31;8.73;;;2.40;;
17251;SDS011;8742;51.716;8.790;2023-04-03T02:34:58;11.87;;;2.50;;
17251;SDS011;8742;51.716;8.790;2023-04-03T02:37:25;8.60;;;1.97;;
17251;SDS011;8742;51.716;8.790;2023-04-03T02:39:51;11.43;;;2.40;;
17251;SDS011;8742;51.716;8.790;2023-04-03T02:42:20;5.97;;;2.40;;
17251;SDS011;8742;51.716;8.790;2023-04-03T02:44:46;6.50;;;2.47;;
17251;SDS011;8742;51.716;8.790;2023-04-03T02:47:13;9.47;;;2.40;;
17251;SDS011;8742;51.716;8.790;2023-04-03T02:49:40;8.13;;;2.20;;
17251;SDS011;8742;51.716;8.790;2023-04-03T02:52:08;4.47;;;2.20;;
17251;SDS011;8742;51.716;8.790;2023-04-03T02:54:35;4.90;;;2.33;;
17251;SDS011;8742;51.716;8.790;2023-04-03T02:57:02;11.27;;;2.20;;
17251;SDS011;8742;51.716;8.790;2023-04-03T02:59:30;6.13;;;2.37;;
17251;SDS011;8742;51.716;8.790;2023-04-03T03:01:57;10.07;;;2.50;;
17251;SDS011;8742;51.716;8.790;2023-04-03T03:04:24;10.90;;;2.37;;
17251;SDS011;8742;51.716;8.790;2023-04-03T03:06:50;4.93;;;2.03;;
17251;SDS011;8742;51.716;8.790;2023-04-03T03:09:17;5.47;;;2.37;;
17251;SDS011;8742;51.716;8.790;2023-04-03T03:11:44;9.03;;;2.63;;
17251;SDS011;8742;51.716;8.790;2023-04-03T03:14:11;10.93;;;2.73;;
17251;SDS011;8742;51.716;8.790;2023-04-03T03:16:39;9.23;;;2.40;;
17251;SDS011;8742;51.716;8.790;2023-04-03T03:19:06;9.30;;;2.50;;
17251;SDS011;8742;51.716;8.790;2023-04-03T03:21:33;5.20;;;2.30;;
17251;SDS011;8742;51.716;8.790;2023-04-03T03:24:00;4.07;;;2.20;;
17251;SDS011;8742;51.716;8.790;2023-04-03T03:26:27;9.50;;;2.40;;
17251;SDS011;8742;51.716;8.790;2023-04-03T03:28:54;10.30;;;2.50;;
17251;SDS011;8742;51.716;8.790;2023-04-03T03:31:21;6.73;;;2.17;;
17251;SDS011;8742;51.716;8.790;2023-04-03T03:33:49;6.33;;;2.30;;
17251;SDS011;8742;51.716;8.790;2023-04-03T03:36:16;12.13;;;2.57;;
17251;SDS011;8742;51.716;8.790;2023-04-03T03:38:43;5.43;;;2.63;;
17251;SDS011;8742;51.716;8.790;2023-04-03T03:41:09;4.40;;;2.10;;
17251;SDS011;8742;51.716;8.790;2023-04-03T03:43:36;11.67;;;2.40;;
17251;SDS011;8742;51.716;8.790;2023-04-03T03:46:03;8.13;;;2.10;;
17251;SDS011;8742;51.716;8.790;2023-04-03T03:48:30;5.53;;;2.30;;
17251;SDS011;8742;51.716;8.790;2023-04-03T03:50:58;11.03;;;2.33;;
17251;SDS011;8742;51.716;8.790;2023-04-03T03:53:25;5.50;;;2.30;;
17251;SDS011;8742;51.716;8.790;2023-04-03T03:55:52;9.70;;;2.50;;
17251;SDS011;8742;51.716;8.790;2023-04-03T03:58:19;7.20;;;2.20;;
17251;SDS011;8742;51.716;8.790;2023-04-03T04:00:46;6.40;;;2.30;;
17251;SDS011;8742;51.716;8.790;2023-04-03T04:03:13;9.77;;;2.30;;
17251;SDS011;8742;51.716;8.790;2023-04-03T04:05:40;6.00;;;1.63;;
17251;SDS011;8742;51.716;8.790;2023-04-03T04:08:08;4.87;;;1.83;;
17251;SDS011;8742;51.716;8.790;2023-04-03T04:10:35;11.40;;;2.00;;
17251;SDS011;8742;51.716;8.790;2023-04-03T04:13:04;8.33;;;1.70;;
17251;SDS011;8742;51.716;8.790;2023-04-03T04:15:31;6.47;;;2.40;;
17251;SDS011;8742;51.716;8.790;2023-04-03T04:17:57;6.03;;;2.33;;
17251;SDS011;8742;51.716;8.790;2023-04-03T04:20:24;3.30;;;1.80;;
17251;SDS011;8742;51.716;8.790;2023-04-03T04:22:51;11.03;;;2.63;;
17251;SDS011;8742;51.716;8.790;2023-04-03T04:25:19;8.57;;;2.03;;
17251;SDS011;8742;51.716;8.790;2023-04-03T04:27:46;5.23;;;2.03;;
17251;SDS011;8742;51.716;8.790;2023-04-03T04:30:13;4.07;;;1.90;;
17251;SDS011;8742;51.716;8.790;2023-04-03T04:32:40;9.00;;;2.20;;
17251;SDS011;8742;51.716;8.790;2023-04-03T04:35:07;5.93;;;2.00;;
17251;SDS011;8742;51.716;8.790;2023-04-03T04:37:34;4.77;;;1.77;;
17251;SDS011;8742;51.716;8.790;2023-04-03T04:40:01;9.13;;;1.90;;
17251;SDS011;8742;51.716;8.790;2023-04-03T04:42:30;5.57;;;1.80;;
17251;SDS011;8742;51.716;8.790;2023-04-03T04:44:57;5.87;;;2.10;;
17251;SDS011;8742;51.716;8.790;2023-04-03T04:47:24;7.10;;;1.90;;
17251;SDS011;8742;51.716;8.790;2023-04-03T04:49:51;4.03;;;2.20;;
17251;SDS011;8742;51.716;8.790;2023-04-03T04:52:18;7.37;;;2.17;;
17251;SDS011;8742;51.716;8.790;2023-04-03T04:54:44;9.67;;;1.90;;
17251;SDS011;8742;51.716;8.790;2023-04-03T04:57:11;8.50;;;2.57;;
17251;SDS011;8742;51.716;8.790;2023-04-03T04:59:39;8.50;;;3.30;;
17251;SDS011;8742;51.716;8.790;2023-04-03T05:02:06;6.40;;;3.17;;
17251;SDS011;8742;51.716;8.790;2023-04-03T05:04:33;5.87;;;3.10;;
17251;SDS011;8742;51.716;8.790;2023-04-03T05:07:00;8.87;;;2.33;;
17251;SDS011;8742;51.716;8.790;2023-04-03T05:09:27;10.67;;;2.33;;
17251;SDS011;8742;51.716;8.790;2023-04-03T05:11:53;15.33;;;2.43;;
17251;SDS011;8742;51.716;8.790;2023-04-03T05:14:21;6.50;;;1.97;;
17251;SDS011;8742;51.716;8.790;2023-04-03T05:16:49;6.70;;;1.80;;
17251;SDS011;8742;51.716;8.790;2023-04-03T05:19:17;9.17;;;2.30;;
17251;SDS011;8742;51.716;8.790;2023-04-03T05:21:45;2.67;;;1.53;;
17251;SDS011;8742;51.716;8.790;2023-04-03T05:24:12;10.67;;;2.23;;
17251;SDS011;8742;51.716;8.790;2023-04-03T05:26:39;4.03;;;1.63;;
17251;SDS011;8742;51.716;8.790;2023-04-03T05:29:06;10.73;;;2.20;;
17251;SDS011;8742;51.716;8.790;2023-04-03T05:31:33;8.37;;;2.30;;
17251;SDS011;8742;51.716;8.790;2023-04-03T05:34:02;6.93;;;2.40;;
17251;SDS011;8742;51.716;8.790;2023-04-03T05:36:29;6.20;;;2.07;;
17251;SDS011;8742;51.716;8.790;2023-04-03T05:38:55;11.87;;;2.60;;
17251;SDS011;8742;51.716;8.790;2023-04-03T05:41:22;4.70;;;2.27;;
17251;SDS011;8742;51.716;8.790;2023-04-03T05:43:49;13.40;;;2.33;;
17251;SDS011;8742;51.716;8.790;2023-04-03T05:46:17;13.53;;;2.63;;
17251;SDS011;8742;51.716;8.790;2023-04-03T05:48:45;10.00;;;1.83;;
17251;SDS011;8742;51.716;8.790;2023-04-03T05:51:15;4.43;;;2.30;;
17251;SDS011;8742;51.716;8.790;2023-04-03T05:53:43;7.17;;;2.27;;
17251;SDS011;8742;51.716;8.790;2023-04-03T05:56:11;9.93;;;2.23;;
17251;SDS011;8742;51.716;8.790;2023-04-03T05:58:38;10.67;;;2.63;;
17251;SDS011;8742;51.716;8.790;2023-04-03T06:01:05;6.50;;;2.30;;
17251;SDS011;8742;51.716;8.790;2023-04-03T06:03:31;4.40;;;1.90;;
17251;SDS011;8742;51.716;8.790;2023-04-03T06:05:58;7.20;;;2.47;;
17251;SDS011;8742;51.716;8.790;2023-04-03T06:08:27;10.17;;;2.30;;
17251;SDS011;8742;51.716;8.790;2023-04-03T06:10:53;2.60;;;1.80;;
17251;SDS011;8742;51.716;8.790;2023-04-03T06:13:21;5.63;;;2.07;;
17251;SDS011;8742;51.716;8.790;2023-04-03T06:15:48;6.23;;;2.20;;
17251;SDS011;8742;51.716;8.790;2023-04-03T06:18:15;5.33;;;2.20;;
17251;SDS011;8742;51.716;8.790;2023-04-03T06:20:42;9.63;;;2.83;;
17251;SDS011;8742;51.716;8.790;2023-04-03T06:23:09;4.37;;;1.93;;
17251;SDS011;8742;51.716;8.790;2023-04-03T06:25:38;4.07;;;1.70;;
17251;SDS011;8742;51.716;8.790;2023-04-03T06:28:05;7.27;;;2.27;;
17251;SDS011;8742;51.716;8.790;2023-04-03T06:30:34;7.13;;;1.90;;
17251;SDS011;8742;51.716;8.790;2023-04-03T06:33:01;5.30;;;2.20;;
17251;SDS011;8742;51.716;8.790;2023-04-03T06:35:28;7.73;;;2.00;;
17251;SDS011;8742;51.716;8.790;2023-04-03T06:37:55;6.53;;;1.97;;
17251;SDS011;8742;51.716;8.790;2023-04-03T06:40:23;10.47;;;2.50;;
17251;SDS011;8742;51.716;8.790;2023-04-03T06:42:52;6.70;;;2.20;;
17251;SDS011;8742;51.716;8.790;2023-04-03T06:45:19;4.27;;;1.80;;
17251;SDS011;8742;51.716;8.790;2023-04-03T06:47:46;5.03;;;1.70;;
17251;SDS011;8742;51.716;8.790;2023-04-03T06:50:13;4.10;;;1.97;;
17251;SDS011;8742;51.716;8.790;2023-04-03T06:52:40;6.30;;;1.93;;
17251;SDS011;8742;51.716;8.790;2023-04-03T06:55:08;7.60;;;1.80;;
17251;SDS011;8742;51.716;8.790;2023-04-03T06:57:35;5.07;;;1.90;;
17251;SDS011;8742;51.716;8.790;2023-04-03T07:00:04;4.87;;;1.70;;
17251;SDS011;8742;51.716;8.790;2023-04-03T07:02:32;8.70;;;1.90;;
17251;SDS011;8742;51.716;8.790;2023-04-03T07:04:58;4.47;;;1.67;;
17251;SDS011;8742;51.716;8.790;2023-04-03T07:07:27;3.60;;;1.60;;
17251;SDS011;8742;51.716;8.790;2023-04-03T07:09:54;4.77;;;1.60;;
17251;SDS011;8742;51.716;8.790;2023-04-03T07:12:21;3.60;;;1.47;;
17251;SDS011;8742;51.716;8.790;2023-04-03T07:14:48;4.00;;;1.73;;
17251;SDS011;8742;51.716;8.790;2023-04-03T07:17:16;5.87;;;1.90;;
17251;SDS011;8742;51.716;8.790;2023-04-03T07:19:43;7.97;;;1.87;;
17251;SDS011;8742;51.716;8.790;2023-04-03T07:22:10;4.17;;;1.80;;
17251;SDS011;8742;51.716;8.790;2023-04-03T07:24:38;4.90;;;1.80;;
17251;SDS011;8742;51.716;8.790;2023-04-03T07:27:04;5.90;;;2.40;;
17251;SDS011;8742;51.716;8.790;2023-04-03T07:29:33;15.03;;;1.97;;
17251;SDS011;8742;51.716;8.790;2023-04-03T07:32:00;8.47;;;1.70;;
17251;SDS011;8742;51.716;8.790;2023-04-03T07:34:29;4.00;;;1.27;;
17251;SDS011;8742;51.716;8.790;2023-04-03T07:36:56;9.90;;;1.77;;
17251;SDS011;8742;51.716;8.790;2023-04-03T07:39:22;5.20;;;1.80;;
17251;SDS011;8742;51.716;8.790;2023-04-03T07:41:49;5.57;;;1.67;;
17251;SDS011;8742;51.716;8.790;2023-04-03T07:44:16;2.30;;;1.17;;
17251;SDS011;8742;51.716;8.790;2023-04-03T07:46:43;4.17;;;1.40;;
17251;SDS011;8742;51.716;8.790;2023-04-03T07:49:11;8.67;;;1.60;;
17251;SDS011;8742;51.716;8.790;2023-04-03T07:51:39;5.73;;;1.43;;
17251;SDS011;8742;51.716;8.790;2023-04-03T07:54:06;3.23;;;0.80;;
17251;SDS011;8742;51.716;8.790;2023-04-03T07:56:33;6.17;;;1.47;;
17251;SDS011;8742;51.716;8.790;2023-04-03T07:59:00;4.20;;;1.07;;
17251;SDS011;8742;51.716;8.790;2023-04-03T08:01:27;2.80;;;1.20;;
17251;SDS011;8742;51.716;8.790;2023-04-03T08:03:57;4.80;;;1.03;;
17251;SDS011;8742;51.716;8.790;2023-04-03T08:06:24;6.00;;;1.20;;
17251;SDS011;8742;51.716;8.790;2023-04-03T08:08:52;2.13;;;0.90;;
17251;SDS011;8742;51.716;8.790;2023-04-03T08:11:19;2.10;;;0.97;;
17251;SDS011;8742;51.716;8.790;2023-04-03T08:13:45;2.00;;;1.13;;
17251;SDS011;8742;51.716;8.790;2023-04-03T08:16:14;2.53;;;1.03;;
17251;SDS011;8742;51.716;8.790;2023-04-03T08:18:44;3.90;;;1.50;;
17251;SDS011;8742;51.716;8.790;2023-04-03T08:21:11;3.77;;;1.23;;
17251;SDS011;8742;51.716;8.790;2023-04-03T08:23:38;1.80;;;0.80;;
17251;SDS011;8742;51.716;8.790;2023-04-03T08:26:09;5.97;;;1.47;;
17251;SDS011;8742;51.716;8.790;2023-04-03T08:28:37;1.23;;;0.93;;
17251;SDS011;8742;51.716;8.790;2023-04-03T08:31:04;2.67;;;1.50;;
17251;SDS011;8742;51.716;8.790;2023-04-03T08:33:32;2.93;;;1.00;;
17251;SDS011;8742;51.716;8.790;2023-04-03T08:36:01;2.30;;;1.27;;
17251;SDS011;8742;51.716;8.790;2023-04-03T08:38:29;2.93;;;1.47;;
17251;SDS011;8742;51.716;8.790;2023-04-03T08:41:00;3.53;;;1.30;;
17251;SDS011;8742;51.716;8.790;2023-04-03T08:43:36;2.83;;;1.17;;
17251;SDS011;8742;51.716;8.790;2023-04-03T08:46:15;2.73;;;1.07;;
17251;SDS011;8742;51.716;8.790;2023-04-03T08:48:46;3.93;;;1.20;;
17251;SDS011;8742;51.716;8.790;2023-04-03T08:51:15;1.77;;;1.10;;
17251;SDS011;8742;51.716;8.790;2023-04-03T08:53:46;5.40;;;1.20;;
17251;SDS011;8742;51.716;8.790;2023-04-03T08:56:21;3.10;;;1.27;;
17251;SDS011;8742;51.716;8.790;2023-04-03T08:58:52;4.10;;;1.30;;
17251;SDS011;8742;51.716;8.790;2023-04-03T09:01:23;1.20;;;1.10;;
17251;SDS011;8742;51.716;8.790;2023-04-03T09:03:53;3.30;;;1.30;;
17251;SDS011;8742;51.716;8.790;2023-04-03T09:06:21;3.73;;;1.50;;
17251;SDS011;8742;51.716;8.790;2023-04-03T09:08:50;3.17;;;1.10;;
17251;SDS011;8742;51.716;8.790;2023-04-03T09:11:23;2.03;;;1.37;;
17251;SDS011;8742;51.716;8.790;2023-04-03T09:13:57;2.70;;;1.47;;
17251;SDS011;8742;51.716;8.790;2023-04-03T09:16:28;2.17;;;1.10;;
17251;SDS011;8742;51.716;8.790;2023-04-03T09:19:06;2.37;;;1.03;;
17251;SDS011;8742;51.716;8.790;2023-04-03T09:21:40;6.70;;;1.63;;
17251;SDS011;8742;51.716;8.790;2023-04-03T09:24:08;1.80;;;0.97;;
17251;SDS011;8742;51.716;8.790;2023-04-03T09:26:39;5.60;;;1.30;;
17251;SDS011;8742;51.716;8.790;2023-04-03T09:29:12;6.07;;;1.20;;
17251;SDS011;8742;51.716;8.790;2023-04-03T09:31:44;4.73;;;1.07;;
17251;SDS011;8742;51.716;8.790;2023-04-03T09:34:14;1.60;;;1.17;;
17251;SDS011;8742;51.716;8.790;2023-04-03T09:36:46;2.73;;;1.13;;
17251;SDS011;8742;51.716;8.790;2023-04-03T09:39:14;3.93;;;1.03;;
17251;SDS011;8742;51.716;8.790;2023-04-03T09:41:50;2.10;;;1.07;;
17251;SDS011;8742;51.716;8.790;2023-04-03T09:44:23;6.37;;;0.97;;
17251;SDS011;8742;51.716;8.790;2023-04-03T09:46:51;1.40;;;0.80;;
17251;SDS011;8742;51.716;8.790;2023-04-03T09:49:18;4.17;;;0.93;;
17251;SDS011;8742;51.716;8.790;2023-04-03T09:51:46;2.17;;;0.97;;
17251;SDS011;8742;51.716;8.790;2023-04-03T09:54:30;2.37;;;1.20;;
17251;SDS011;8742;51.716;8.790;2023-04-03T09:57:01;2.40;;;1.20;;
17251;SDS011;8742;51.716;8.790;2023-04-03T09:59:34;2.97;;;0.97;;
17251;SDS011;8742;51.716;8.790;2023-04-03T10:02:02;1.47;;;0.80;;
17251;SDS011;8742;51.716;8.790;2023-04-03T10:04:43;2.70;;;1.00;;
17251;SDS011;8742;51.716;8.790;2023-04-03T10:07:26;2.20;;;1.00;;
17251;SDS011;8742;51.716;8.790;2023-04-03T10:09:55;2.30;;;1.10;;
17251;SDS011;8742;51.716;8.790;2023-04-03T10:12:23;4.93;;;1.13;;
17251;SDS011;8742;51.716;8.790;2023-04-03T10:14:56;4.17;;;1.13;;
17251;SDS011;8742;51.716;8.790;2023-04-03T10:17:26;1.80;;;1.00;;
17251;SDS011;8742;51.716;8.790;2023-04-03T10:20:03;1.60;;;0.87;;
17251;SDS011;8742;51.716;8.790;2023-04-03T10:22:43;1.93;;;0.83;;
17251;SDS011;8742;51.716;8.790;2023-04-03T10:25:20;4.30;;;1.27;;
17251;SDS011;8742;51.716;8.790;2023-04-03T10:27:53;3.93;;;0.93;;
17251;SDS011;8742;51.716;8.790;2023-04-03T10:30:32;3.50;;;1.20;;
17251;SDS011;8742;51.716;8.790;2023-04-03T10:33:11;3.07;;;1.07;;
17251;SDS011;8742;51.716;8.790;2023-04-03T10:35:54;4.33;;;1.20;;
17251;SDS011;8742;51.716;8.790;2023-04-03T10:38:37;6.57;;;1.30;;
17251;SDS011;8742;51.716;8.790;2023-04-03T10:41:15;2.33;;;0.97;;
17251;SDS011;8742;51.716;8.790;2023-04-03T10:43:48;3.23;;;0.90;;
17251;SDS011;8742;51.716;8.790;2023-04-03T10:46:23;3.10;;;1.07;;
17251;SDS011;8742;51.716;8.790;2023-04-03T10:49:00;2.83;;;1.20;;
17251;SDS011;8742;51.716;8.790;2023-04-03T10:51:36;2.23;;;1.20;;
17251;SDS011;8742;51.716;8.790;2023-04-03T10:54:08;2.17;;;1.10;;
17251;SDS011;8742;51.716;8.790;2023-04-03T10:56:40;2.73;;;1.13;;
17251;SDS011;8742;51.716;8.790;2023-04-03T10:59:16;2.60;;;1.10;;
17251;SDS011;8742;51.716;8.790;2023-04-03T11:01:51;4.73;;;1.47;;
17251;SDS011;8742;51.716;8.790;2023-04-03T11:04:21;2.20;;;1.20;;
17251;SDS011;8742;51.716;8.790;2023-04-03T11:06:53;3.37;;;1.40;;
17251;SDS011;8742;51.716;8.790;2023-04-03T11:09:26;2.20;;;1.27;;
17251;SDS011;8742;51.716;8.790;2023-04-03T11:11:55;6.00;;;1.50;;
17251;SDS011;8742;51.716;8.790;2023-04-03T11:14:27;2.07;;;1.50;;
17251;SDS011;8742;51.716;8.790;2023-04-03T11:17:04;1.70;;;1.13;;
17251;SDS011;8742;51.716;8.790;2023-04-03T11:19:39;4.27;;;1.63;;
17251;SDS011;8742;51.716;8.790;2023-04-03T11:22:13;2.63;;;1.57;;
17251;SDS011;8742;51.716;8.790;2023-04-03T11:24:50;3.03;;;1.57;;
17251;SDS011;8742;51.716;8.790;2023-04-03T11:27:22;4.17;;;1.67;;
17251;SDS011;8742;51.716;8.790;2023-04-03T11:29:52;2.53;;;1.43;;
17251;SDS011;8742;51.716;8.790;2023-04-03T11:32:31;6.00;;;2.03;;
17251;SDS011;8742;51.716;8.790;2023-04-03T11:35:10;3.17;;;1.33;;
17251;SDS011;8742;51.716;8.790;2023-04-03T11:37:39;1.73;;;1.10;;
17251;SDS011;8742;51.716;8.790;2023-04-03T11:40:18;3.87;;;1.40;;
17251;SDS011;8742;51.716;8.790;2023-04-03T11:42:49;2.83;;;1.50;;
17251;SDS011;8742;51.716;8.790;2023-04-03T11:54:42;4.20;;;1.50;;
17251;SDS011;8742;51.716;8.790;2023-04-03T12:12:41;4.50;;;1.47;;
17251;SDS011;8742;51.716;8.790;2023-04-03T12:21:17;3.97;;;1.20;;
17251;SDS011;8742;51.716;8.790;2023-04-03T12:24:01;5.50;;;1.73;;
17251;SDS011;8742;51.716;8.790;2023-04-03T12:26:32;3.20;;;1.30;;
17251;SDS011;8742;51.716;8.790;2023-04-03T12:29:10;2.97;;;1.33;;
17251;SDS011;8742;51.716;8.790;2023-04-03T12:31:45;6.40;;;1.80;;
17251;SDS011;8742;51.716;8.790;2023-04-03T12:34:26;3.50;;;1.40;;
17251;SDS011;8742;51.716;8.790;2023-04-03T12:37:07;2.20;;;1.37;;
17251;SDS011;8742;51.716;8.790;2023-04-03T12:39:44;2.93;;;1.60;;
17251;SDS011;8742;51.716;8.790;2023-04-03T12:42:32;3.87;;;1.50;;
17251;SDS011;8742;51.716;8.790;2023-04-03T12:45:10;2.33;;;1.57;;
17251;SDS011;8742;51.716;8.790;2023-04-03T12:47:43;1.43;;;1.00;;
17251;SDS011;8742;51.716;8.790;2023-04-03T12:50:18;3.73;;;1.53;;
17251;SDS011;8742;51.716;8.790;2023-04-03T12:52:50;4.90;;;1.80;;
17251;SDS011;8742;51.716;8.790;2023-04-03T12:55:22;3.57;;;1.57;;
17251;SDS011;8742;51.716;8.790;2023-04-03T12:57:50;4.17;;;1.20;;
17251;SDS011;8742;51.716;8.790;2023-04-03T13:03:04;2.40;;;1.30;;
17251;SDS011;8742;51.716;8.790;2023-04-03T13:05:32;3.43;;;1.60;;
17251;SDS011;8742;51.716;8.790;2023-04-03T13:08:01;3.20;;;1.77;;
17251;SDS011;8742;51.716;8.790;2023-04-03T13:10:30;3.50;;;1.73;;
17251;SDS011;8742;51.716;8.790;2023-04-03T13:13:06;3.03;;;1.57;;
17251;SDS011;8742;51.716;8.790;2023-04-03T13:15:40;3.60;;;1.40;;
17251;SDS011;8742;51.716;8.790;2023-04-03T13:18:21;4.00;;;1.57;;
17251;SDS011;8742;51.716;8.790;2023-04-03T13:20:55;3.47;;;1.30;;
17251;SDS011;8742;51.716;8.790;2023-04-03T13:23:26;3.80;;;1.43;;
17251;SDS011;8742;51.716;8.790;2023-04-03T13:25:53;2.37;;;1.23;;
17251;SDS011;8742;51.716;8.790;2023-04-03T13:28:22;2.90;;;1.50;;
17251;SDS011;8742;51.716;8.790;2023-04-03T13:30:59;2.20;;;1.10;;
17251;SDS011;8742;51.716;8.790;2023-04-03T13:33:35;2.57;;;1.63;;
17251;SDS011;8742;51.716;8.790;2023-04-03T13:36:04;5.13;;;1.70;;
17251;SDS011;8742;51.716;8.790;2023-04-03T13:38:34;2.37;;;1.50;;
17251;SDS011;8742;51.716;8.790;2023-04-03T13:41:02;2.60;;;1.80;;
17251;SDS011;8742;51.716;8.790;2023-04-03T13:43:33;3.37;;;2.10;;
17251;SDS011;8742;51.716;8.790;2023-04-03T13:46:03;2.87;;;2.30;;
17251;SDS011;8742;51.716;8.790;2023-04-03T13:48:36;2.77;;;2.30;;
17251;SDS011;8742;51.716;8.790;2023-04-03T13:51:05;3.23;;;1.50;;
17251;SDS011;8742;51.716;8.790;2023-04-03T13:53:44;3.10;;;1.67;;
17251;SDS011;8742;51.716;8.790;2023-04-03T13:56:16;2.33;;;1.60;;
17251;SDS011;8742;51.716;8.790;2023-04-03T13:58:56;3.53;;;1.40;;
17251;SDS011;8742;51.716;8.790;2023-04-03T14:01:25;1.83;;;1.53;;
17251;SDS011;8742;51.716;8.790;2023-04-03T14:03:59;4.80;;;1.40;;
17251;SDS011;8742;51.716;8.790;2023-04-03T14:06:35;3.77;;;1.43;;
17251;SDS011;8742;51.716;8.790;2023-04-03T14:09:02;1.80;;;1.50;;
17251;SDS011;8742;51.716;8.790;2023-04-03T14:11:29;4.20;;;1.60;;
17251;SDS011;8742;51.716;8.790;2023-04-03T14:14:00;1.80;;;1.20;;
17251;SDS011;8742;51.716;8.790;2023-04-03T14:16:30;4.10;;;1.47;;
17251;SDS011;8742;51.716;8.790;2023-04-03T14:19:03;2.03;;;1.50;;
17251;SDS011;8742;51.716;8.790;2023-04-03T14:21:30;4.87;;;1.60;;
17251;SDS011;8742;51.716;8.790;2023-04-03T14:23:57;3.37;;;1.33;;
17251;SDS011;8742;51.716;8.790;2023-04-03T14:26:24;2.93;;;1.30;;
17251;SDS011;8742;51.716;8.790;2023-04-03T14:28:53;3.00;;;1.43;;
17251;SDS011;8742;51.716;8.790;2023-04-03T14:31:22;2.03;;;1.30;;
17251;SDS011;8742;51.716;8.790;2023-04-03T14:33:49;5.73;;;1.50;;
17251;SDS011;8742;51.716;8.790;2023-04-03T14:36:17;2.50;;;1.60;;
17251;SDS011;8742;51.716;8.790;2023-04-03T14:38:46;2.27;;;1.40;;
17251;SDS011;8742;51.716;8.790;2023-04-03T14:41:14;5.73;;;1.40;;
17251;SDS011;8742;51.716;8.790;2023-04-03T14:43:43;1.67;;;1.40;;
17251;SDS011;8742;51.716;8.790;2023-04-03T14:46:12;2.40;;;1.50;;
17251;SDS011;8742;51.716;8.790;2023-04-03T14:48:43;8.03;;;1.43;;
17251;SDS011;8742;51.716;8.790;2023-04-03T14:51:10;1.90;;;1.33;;
17251;SDS011;8742;51.716;8.790;2023-04-03T14:53:38;2.95;;;1.50;;
17251;SDS011;8742;51.716;8.790;2023-04-03T14:56:10;2.63;;;1.60;;
17251;SDS011;8742;51.716;8.790;2023-04-03T14:58:38;2.70;;;1.60;;
17251;SDS011;8742;51.716;8.790;2023-04-03T15:01:05;2.40;;;1.47;;
17251;SDS011;8742;51.716;8.790;2023-04-03T15:03:32;4.13;;;1.87;;
17251;SDS011;8742;51.716;8.790;2023-04-03T15:06:00;5.63;;;2.90;;
17251;SDS011;8742;51.716;8.790;2023-04-03T15:08:27;2.40;;;1.40;;
17251;SDS011;8742;51.716;8.790;2023-04-03T15:10:55;3.20;;;1.70;;
17251;SDS011;8742;51.716;8.790;2023-04-03T15:13:23;3.73;;;1.80;;
17251;SDS011;8742;51.716;8.790;2023-04-03T15:15:51;3.80;;;1.77;;
17251;SDS011;8742;51.716;8.790;2023-04-03T15:18:20;3.73;;;1.70;;
17251;SDS011;8742;51.716;8.790;2023-04-03T15:20:48;2.03;;;1.50;;
17251;SDS011;8742;51.716;8.790;2023-04-03T15:23:16;6.57;;;1.70;;
17251;SDS011;8742;51.716;8.790;2023-04-03T15:25:43;3.97;;;1.73;;
17251;SDS011;8742;51.716;8.790;2023-04-03T15:28:15;4.17;;;1.30;;
17251;SDS011;8742;51.716;8.790;2023-04-03T15:30:45;2.93;;;1.23;;
17251;SDS011;8742;51.716;8.790;2023-04-03T15:33:12;4.00;;;1.67;;
17251;SDS011;8742;51.716;8.790;2023-04-03T15:35:40;3.17;;;1.60;;
17251;SDS011;8742;51.716;8.790;2023-04-03T15:38:07;3.23;;;1.50;;
17251;SDS011;8742;51.716;8.790;2023-04-03T15:40:36;1.33;;;1.07;;
17251;SDS011;8742;51.716;8.790;2023-04-03T15:43:04;2.47;;;1.50;;
17251;SDS011;8742;51.716;8.790;2023-04-03T15:45:31;2.10;;;1.27;;
17251;SDS011;8742;51.716;8.790;2023-04-03T15:47:59;2.43;;;1.27;;
17251;SDS011;8742;51.716;8.790;2023-04-03T15:50:27;3.63;;;1.50;;
17251;SDS011;8742;51.716;8.790;2023-04-03T15:52:54;2.50;;;1.53;;